Sidney Municipal-Lloyd W Carr Field
KSNY : now visible

Airfield :











YOU CAN JOIN US ON...

 
LOGIN :

Register | Disclaimer

   EN    FR    IT 

 









Legend :    VFR   Marginal VFR   IFR   Intensive IFR   Very Intensive IFR
Visi :
Ceiling :
>= 8 km
>= 3000ft
5 to 8 km
1000 to 3000 ft
1500m to 5 km
500 to 1000 ft
800 to 1500m
200 to 500 ft
< 800m
< 200 ft
Symbols :   Thunderstorms  Fog  Heavy snow  Heavy precipitations  Wind > 20 kt






- Airport Elevation : 4313 ft


KSNY - Sidney Municipal-Lloyd W Carr Field

CURRENT METAR :
  • 021153Z AUTO 28009KT 10SM CLR M02/M06 A2950 RMK AO2 SLP006 T10221056 10011 21039 58008

EXPIRED METARs :
  • 021053Z AUTO 26007KT 10SM CLR M01/M06 A2952 RMK AO2 SLP010 T10111056
  • 020953Z AUTO 22006KT 10SM CLR M01/M05 A2952 RMK AO2 SLP004 T10111050

TAF KSNY
Valid from the 02 at 12:00 until the 03 at 12:00 UTC


021120Z 0212/0312 27010KT P6SM BKN150
FM021500 26013G22KT P6SM BKN150
FM021700 33030G48KT P6SM BKN120
FM030100 31015G25KT P6SM SCT150
FM030500 26008KT P6SM SKC
KZDV FIR / North America



MET'MAP, your aeronautical weather chart ! - Copyright ORBIFLY December 2007 - Disclaimer

ORBIFLY MET'MAP TEAM :

Programming & Development : Alexandra Zaïnal
Original concept : Baudouin d'Aumeries
Technical & hardware support : Manuel Goepfert
Assistance : Marc-Olivier Méhu




SOURCES & CREDITS :

   NOAA       Earth
Advisory